Time;durP1;ratioP1;P1;durP2;ratioP2;P2;SDS_P1;SDS_P2;PMS_P1;PMS_P2;Temp;Humidity;BMP_temperature;BMP_pressure;BME280_temperature;BME280_humidity;BME280_pressure;Samples;Min_cycle;Max_cycle;Signal;HPM_P1;HPM_P2
2022/07/19 00:00:14;;;;;;;10.17;7.53;;;19.00;99.90;;;;;;5032074;28;20666;-60
2022/07/19 00:02:43;;;;;;;8.93;7.20;;;18.90;99.90;;;;;;5031906;28;20255;-60
2022/07/19 00:05:13;;;;;;;8.70;7.33;;;18.90;99.90;;;;;;5032310;28;20375;-60
2022/07/19 00:07:42;;;;;;;7.97;7.03;;;18.90;99.90;;;;;;5032170;28;20264;-60
2022/07/19 00:10:12;;;;;;;8.47;6.63;;;18.80;99.90;;;;;;5035027;28;20235;-59
2022/07/19 00:12:41;;;;;;;9.03;7.00;;;18.80;99.90;;;;;;5035390;28;20274;-59
2022/07/19 00:15:15;;;;;;;10.13;7.97;;;18.80;99.90;;;;;;5035783;28;20223;-59
2022/07/19 00:17:44;;;;;;;9.30;7.37;;;18.70;99.90;;;;;;5035314;28;20578;-59
2022/07/19 00:20:15;;;;;;;7.47;6.57;;;18.70;99.90;;;;;;5035482;28;20565;-59
2022/07/19 00:22:43;;;;;;;9.93;7.90;;;18.60;99.90;;;;;;5035453;28;20293;-59
2022/07/19 00:25:11;;;;;;;8.13;6.83;;;18.60;99.90;;;;;;5035765;28;20817;-59
2022/07/19 00:27:44;;;;;;;8.13;6.53;;;18.60;99.90;;;;;;5042201;28;20235;-59
2022/07/19 00:30:13;;;;;;;8.97;7.00;;;18.60;99.90;;;;;;5034991;28;20249;-59
2022/07/19 00:32:42;;;;;;;9.43;7.27;;;18.50;99.90;;;;;;5054774;28;20239;-59
2022/07/19 00:35:10;;;;;;;9.27;7.40;;;18.50;99.90;;;;;;5055451;28;20230;-59
2022/07/19 00:37:39;;;;;;;9.30;7.30;;;18.40;99.90;;;;;;5055242;28;20690;-59
2022/07/19 00:40:15;;;;;;;9.33;7.30;;;18.40;99.90;;;;;;5055014;28;20238;-59
2022/07/19 00:42:44;;;;;;;8.70;6.47;;;18.30;99.90;;;;;;5054775;28;20814;-60
2022/07/19 00:45:14;;;;;;;10.37;6.87;;;18.30;99.90;;;;;;5054685;28;20318;-59
2022/07/19 00:47:42;;;;;;;7.57;6.80;;;18.30;99.90;;;;;;5054701;28;20226;-59
2022/07/19 00:50:10;;;;;;;7.70;6.90;;;18.20;99.90;;;;;;5054997;28;20227;-59
2022/07/19 00:52:40;;;;;;;8.17;6.90;;;18.20;99.90;;;;;;5054546;28;20261;-59
2022/07/19 00:55:09;;;;;;;9.57;6.97;;;18.10;99.90;;;;;;5055063;28;20589;-59
2022/07/19 00:58:10;;;;;;;8.23;7.27;;;18.10;99.90;;;;;;5054253;28;20232;-59
2022/07/19 01:00:39;;;;;;;8.77;7.33;;;18.10;99.90;;;;;;5053960;28;20242;-59
2022/07/19 01:03:08;;;;;;;8.83;6.47;;;18.10;99.90;;;;;;5054608;28;20227;-59
2022/07/19 01:05:37;;;;;;;7.33;6.50;;;18.00;99.90;;;;;;5054845;28;20673;-59
2022/07/19 01:08:07;;;;;;;11.13;7.23;;;18.00;99.90;;;;;;5054584;28;20555;-59
2022/07/19 01:10:35;;;;;;;7.47;6.53;;;18.00;99.90;;;;;;5054576;28;20737;-59
2022/07/19 01:13:04;;;;;;;8.83;7.00;;;17.90;99.90;;;;;;5054120;28;20226;-59
2022/07/19 01:15:32;;;;;;;8.57;6.73;;;17.90;99.90;;;;;;5054411;28;20262;-59
2022/07/19 01:18:01;;;;;;;7.43;6.50;;;17.80;99.90;;;;;;5054192;28;20257;-59
2022/07/19 01:20:29;;;;;;;8.43;7.20;;;17.80;99.90;;;;;;5053718;28;20748;-59
2022/07/19 01:23:00;;;;;;;9.23;6.70;;;17.80;99.90;;;;;;5054586;28;20267;-59
2022/07/19 01:25:30;;;;;;;7.70;6.53;;;17.80;99.90;;;;;;5054082;28;20618;-59
2022/07/19 01:27:58;;;;;;;7.40;6.60;;;17.70;99.90;;;;;;5054052;28;20318;-59
2022/07/19 01:30:30;;;;;;;8.00;6.47;;;17.60;99.90;;;;;;5053490;28;20250;-59
2022/07/19 01:32:59;;;;;;;7.80;7.00;;;17.70;99.90;;;;;;5054266;28;20585;-58
2022/07/19 01:35:28;;;;;;;7.60;6.53;;;17.70;99.90;;;;;;5053845;28;20223;-59
2022/07/19 01:37:58;;;;;;;7.87;6.30;;;17.60;99.90;;;;;;5053913;28;20238;-59
2022/07/19 01:40:27;;;;;;;8.33;6.87;;;17.60;99.90;;;;;;5053917;28;20223;-59
2022/07/19 01:42:55;;;;;;;8.83;7.37;;;17.60;99.90;;;;;;5053863;28;20656;-59
2022/07/19 01:45:23;;;;;;;8.20;7.00;;;17.60;99.90;;;;;;5053661;28;20318;-58
2022/07/19 01:47:51;;;;;;;8.60;6.63;;;17.50;99.90;;;;;;5053945;28;20624;-59
2022/07/19 01:50:19;;;;;;;8.70;7.00;;;17.50;99.90;;;;;;5053501;28;20223;-59
2022/07/19 01:52:47;;;;;;;10.20;7.10;;;17.50;99.90;;;;;;5053194;28;20309;-59
2022/07/19 01:55:20;;;;;;;9.63;7.00;;;17.40;99.90;;;;;;5053570;28;20226;-58
2022/07/19 01:57:49;;;;;;;8.53;7.57;;;17.40;99.90;;;;;;5053221;28;20238;-57
2022/07/19 02:00:17;;;;;;;8.67;7.17;;;17.40;99.90;;;;;;5050311;28;20291;-59
2022/07/19 02:02:45;;;;;;;9.50;7.73;;;17.40;99.90;;;;;;5053290;28;20226;-59
2022/07/19 02:05:14;;;;;;;8.77;7.30;;;17.30;99.90;;;;;;5053425;28;20229;-59
2022/07/19 02:07:47;;;;;;;7.93;6.93;;;17.30;99.90;;;;;;5053573;28;20247;-59
2022/07/19 02:10:16;;;;;;;7.60;6.70;;;17.20;99.90;;;;;;5053531;28;20283;-58
2022/07/19 02:12:45;;;;;;;7.90;7.10;;;17.20;99.90;;;;;;5052851;28;20228;-59
2022/07/19 02:15:14;;;;;;;7.77;6.97;;;17.20;99.90;;;;;;5053369;28;20310;-59
2022/07/19 02:17:42;;;;;;;9.17;6.50;;;17.20;99.90;;;;;;5053021;28;20308;-59
2022/07/19 02:20:12;;;;;;;8.63;6.97;;;17.10;99.90;;;;;;5052898;28;20325;-59
2022/07/19 02:22:40;;;;;;;6.70;6.00;;;17.10;99.90;;;;;;5053006;28;20232;-59
2022/07/19 02:25:09;;;;;;;8.90;7.03;;;17.00;99.90;;;;;;5053051;28;20220;-59
2022/07/19 02:27:37;;;;;;;7.90;6.50;;;17.00;99.90;;;;;;5060228;28;20641;-59
2022/07/19 02:30:09;;;;;;;7.23;6.53;;;17.00;99.90;;;;;;5052591;28;20282;-59
2022/07/19 02:32:37;;;;;;;7.33;6.63;;;17.00;99.90;;;;;;5051867;28;20244;-59
2022/07/19 02:35:07;;;;;;;9.97;7.13;;;16.90;99.90;;;;;;5052826;28;20315;-59
2022/07/19 02:37:35;;;;;;;10.80;7.43;;;16.90;99.90;;;;;;5052687;28;20234;-59
2022/07/19 02:40:04;;;;;;;8.90;6.57;;;16.90;99.90;;;;;;5053103;28;20579;-58
2022/07/19 02:42:32;;;;;;;6.70;5.87;;;16.90;99.90;;;;;;5052902;28;20706;-59
2022/07/19 02:45:00;;;;;;;7.20;5.50;;;16.80;99.90;;;;;;5052660;28;20228;-59
2022/07/19 02:47:30;;;;;;;6.70;5.63;;;16.80;99.90;;;;;;5052806;28;20229;-59
2022/07/19 02:49:58;;;;;;;8.33;6.47;;;16.80;99.90;;;;;;5052509;28;20629;-57
2022/07/19 02:52:26;;;;;;;8.73;6.47;;;16.70;99.90;;;;;;5052422;28;20268;-58
2022/07/19 02:54:54;;;;;;;7.93;6.30;;;16.70;99.90;;;;;;5052477;28;20235;-58
2022/07/19 02:57:22;;;;;;;8.03;6.47;;;16.70;99.90;;;;;;5052442;28;20236;-58
2022/07/19 02:59:55;;;;;;;7.57;6.60;;;16.70;99.90;;;;;;5052677;28;20232;-58
2022/07/19 03:02:26;;;;;;;8.47;7.13;;;16.70;99.90;;;;;;5052060;28;20242;-58
2022/07/19 03:04:55;;;;;;;7.87;7.00;;;16.70;99.90;;;;;;5052786;28;20248;-59
2022/07/19 03:07:24;;;;;;;8.90;7.53;;;16.60;99.90;;;;;;5052590;28;20238;-58
2022/07/19 03:09:52;;;;;;;12.33;7.73;;;16.60;99.90;;;;;;5052743;28;20260;-58
2022/07/19 03:12:20;;;;;;;8.33;6.43;;;16.50;99.90;;;;;;5052757;28;20276;-59
2022/07/19 03:14:48;;;;;;;7.40;6.53;;;16.50;99.90;;;;;;5052262;28;20248;-59
2022/07/19 03:17:16;;;;;;;7.20;6.00;;;16.50;99.90;;;;;;5052424;28;20226;-58
2022/07/19 03:19:45;;;;;;;8.93;5.97;;;16.40;99.90;;;;;;5052427;28;20225;-58
2022/07/19 03:22:15;;;;;;;7.33;6.30;;;16.40;99.90;;;;;;5052417;28;20241;-58
2022/07/19 03:24:43;;;;;;;7.60;6.50;;;16.40;99.90;;;;;;5052494;28;20225;-59
2022/07/19 03:27:11;;;;;;;7.60;6.30;;;16.40;99.90;;;;;;5052597;28;20720;-58
2022/07/19 03:29:40;;;;;;;7.07;6.37;;;16.40;99.90;;;;;;5051371;28;20220;-59
2022/07/19 03:32:08;;;;;;;7.77;6.27;;;16.40;99.90;;;;;;5051854;28;20274;-59
2022/07/19 03:34:36;;;;;;;7.53;6.53;;;16.40;99.90;;;;;;5052028;28;20325;-59
2022/07/19 03:37:04;;;;;;;7.47;6.57;;;16.40;99.90;;;;;;5052252;28;20230;-59
2022/07/19 03:39:34;;;;;;;7.23;6.40;;;16.40;99.90;;;;;;5052281;28;20243;-58
2022/07/19 03:42:02;;;;;;;8.87;6.73;;;16.40;99.90;;;;;;5051839;28;20228;-59
2022/07/19 03:44:30;;;;;;;7.10;6.40;;;16.40;99.90;;;;;;5054731;28;20273;-59
2022/07/19 03:46:58;;;;;;;6.93;6.23;;;16.40;99.90;;;;;;5055345;28;20220;-59
2022/07/19 03:49:26;;;;;;;6.87;6.17;;;16.40;99.90;;;;;;5055560;28;20235;-58
2022/07/19 03:51:54;;;;;;;8.10;6.97;;;16.30;99.90;;;;;;5055691;28;20243;-59
2022/07/19 03:54:22;;;;;;;7.03;6.20;;;16.40;99.90;;;;;;5055783;28;20281;-59
2022/07/19 03:56:52;;;;;;;6.37;5.67;;;16.40;99.90;;;;;;5051366;28;20221;-59
2022/07/19 03:59:22;;;;;;;5.73;4.50;;;16.40;99.90;;;;;;5055931;28;20711;-59
2022/07/19 04:01:51;;;;;;;6.10;5.00;;;16.40;99.90;;;;;;5055306;28;20249;-59
2022/07/19 04:04:23;;;;;;;7.00;5.27;;;16.50;99.90;;;;;;5055841;28;20691;-58
2022/07/19 04:06:51;;;;;;;6.07;5.37;;;16.50;99.90;;;;;;5055745;28;20223;-58
2022/07/19 04:09:19;;;;;;;6.10;5.50;;;16.60;99.90;;;;;;5054191;28;20217;-58
2022/07/19 04:11:47;;;;;;;6.07;5.27;;;16.70;99.90;;;;;;5055411;28;20231;-59
2022/07/19 04:14:17;;;;;;;15.30;6.33;;;16.70;99.90;;;;;;5055385;28;20224;-59
2022/07/19 04:16:45;;;;;;;6.83;5.87;;;16.80;99.90;;;;;;5055733;28;20335;-58
2022/07/19 04:19:13;;;;;;;6.67;5.77;;;16.80;99.90;;;;;;5055738;28;20247;-59
2022/07/19 04:21:41;;;;;;;8.50;6.00;;;16.90;99.90;;;;;;5055212;28;20312;-59
2022/07/19 04:24:09;;;;;;;8.93;6.23;;;17.00;99.90;;;;;;5037668;28;20264;-58
2022/07/19 04:26:39;;;;;;;8.10;6.40;;;17.10;99.90;;;;;;5038016;28;20226;-59
2022/07/19 04:29:07;;;;;;;6.50;5.80;;;17.20;99.90;;;;;;5055190;28;20277;-59
2022/07/19 04:31:36;;;;;;;7.07;5.30;;;17.30;99.90;;;;;;5054590;28;20270;-59
2022/07/19 04:34:38;;;;;;;8.53;5.37;;;17.40;99.90;;;;;;5055005;28;20608;-59
2022/07/19 04:37:06;;;;;;;7.07;5.87;;;17.50;99.90;;;;;;5055220;28;20588;-59
2022/07/19 04:39:34;;;;;;;7.00;5.77;;;17.60;99.90;;;;;;5054568;28;20238;-59
2022/07/19 04:42:02;;;;;;;6.30;5.70;;;17.70;99.90;;;;;;5055104;28;20309;-59
2022/07/19 04:44:30;;;;;;;7.90;5.20;;;17.70;99.90;;;;;;5054675;28;20246;-59
2022/07/19 04:47:00;;;;;;;8.07;5.47;;;17.80;99.90;;;;;;5055099;28;20224;-59
2022/07/19 04:49:28;;;;;;;6.47;5.10;;;17.90;99.90;;;;;;5054618;28;20564;-59
2022/07/19 04:51:56;;;;;;;7.47;5.30;;;18.00;99.90;;;;;;5054809;28;20646;-60
2022/07/19 04:54:24;;;;;;;6.23;5.23;;;18.10;99.90;;;;;;5054162;28;20234;-59
2022/07/19 04:56:53;;;;;;;9.00;5.63;;;18.20;99.90;;;;;;5059537;28;20283;-60
2022/07/19 04:59:21;;;;;;;6.77;5.17;;;18.30;99.90;;;;;;5056879;28;20216;-60
2022/07/19 05:01:49;;;;;;;6.87;5.93;;;18.30;99.90;;;;;;5053978;28;20327;-60
2022/07/19 05:04:21;;;;;;;6.83;4.93;;;18.50;99.90;;;;;;5054557;28;20303;-60
2022/07/19 05:06:56;;;;;;;5.70;5.20;;;18.60;99.90;;;;;;5052743;28;20688;-59
2022/07/19 05:09:24;;;;;;;5.83;5.20;;;18.70;99.90;;;;;;5050151;28;20235;-60
2022/07/19 05:11:53;;;;;;;6.03;5.17;;;18.70;99.90;;;;;;5054658;28;20685;-60
2022/07/19 05:14:21;;;;;;;6.47;5.37;;;18.80;99.90;;;;;;5054228;28;20229;-60
2022/07/19 05:16:50;;;;;;;5.50;5.00;;;18.90;99.90;;;;;;5054496;28;20635;-60
2022/07/19 05:19:19;;;;;;;7.43;5.83;;;19.10;99.90;;;;;;5054196;28;20269;-60
2022/07/19 05:21:48;;;;;;;6.13;5.43;;;19.30;99.90;;;;;;5053251;28;20633;-60
2022/07/19 05:24:16;;;;;;;9.67;6.20;;;19.50;99.90;;;;;;5055413;28;20320;-60
2022/07/19 05:26:44;;;;;;;9.83;6.93;;;19.80;99.90;;;;;;5054255;28;20581;-60
2022/07/19 05:29:14;;;;;;;7.93;6.77;;;20.00;99.90;;;;;;5055155;28;20309;-60
2022/07/19 05:31:42;;;;;;;9.70;7.03;;;20.10;99.90;;;;;;5053232;28;20234;-60
2022/07/19 05:34:10;;;;;;;7.77;6.70;;;20.40;99.90;;;;;;5052709;28;20218;-61
2022/07/19 05:36:38;;;;;;;7.50;6.70;;;20.70;99.90;;;;;;5049155;28;20274;-60
2022/07/19 05:39:07;;;;;;;7.93;5.97;;;21.00;99.90;;;;;;5053057;28;20234;-61
2022/07/19 05:41:36;;;;;;;7.27;6.40;;;21.20;99.90;;;;;;5049096;28;20224;-61
2022/07/19 05:44:05;;;;;;;9.00;6.40;;;21.30;99.90;;;;;;5053558;28;20239;-61
2022/07/19 05:46:33;;;;;;;6.97;6.10;;;21.30;99.90;;;;;;5053747;28;20230;-61
2022/07/19 05:49:08;;;;;;;8.97;6.77;;;21.40;99.90;;;;;;5053401;28;20231;-61
2022/07/19 05:51:36;;;;;;;7.57;5.90;;;21.70;99.90;;;;;;5053293;28;20318;-61
2022/07/19 05:54:07;;;;;;;6.67;6.07;;;21.70;99.90;;;;;;5053493;28;20230;-61
2022/07/19 05:56:35;;;;;;;9.43;7.07;;;21.90;99.90;;;;;;5051343;28;20594;-61
2022/07/19 05:59:03;;;;;;;12.53;7.90;;;22.10;99.90;;;;;;5053176;28;20227;-62
2022/07/19 06:01:31;;;;;;;9.87;6.97;;;22.20;99.90;;;;;;5049419;28;20241;-61
2022/07/19 06:04:01;;;;;;;6.83;6.23;;;22.40;99.90;;;;;;5053618;28;20228;-62
2022/07/19 06:06:31;;;;;;;10.03;7.07;;;22.50;99.90;;;;;;5052242;28;20644;-61
2022/07/19 06:09:01;;;;;;;10.57;6.73;;;22.60;99.90;;;;;;5047284;28;20314;-62
2022/07/19 06:11:30;;;;;;;9.30;7.07;;;22.70;99.90;;;;;;5047867;28;20228;-62
2022/07/19 06:13:58;;;;;;;11.97;7.00;;;22.80;99.90;;;;;;5053484;28;20232;-63
2022/07/19 06:16:27;;;;;;;8.17;6.33;;;23.10;99.90;;;;;;5053071;28;20650;-61
2022/07/19 06:18:55;;;;;;;6.77;5.60;;;23.50;99.90;;;;;;5052768;28;20242;-62
2022/07/19 06:21:23;;;;;;;7.07;6.23;;;24.00;99.90;;;;;;5051721;28;20680;-62
2022/07/19 06:23:51;;;;;;;7.70;5.97;;;24.10;99.90;;;;;;5052689;28;20633;-63
2022/07/19 06:26:20;;;;;;;7.17;6.03;;;24.30;99.90;;;;;;5052987;28;20216;-62
2022/07/19 06:28:49;;;;;;;6.20;5.60;;;24.90;99.90;;;;;;5052779;28;20642;-63
2022/07/19 06:31:17;;;;;;;6.60;5.80;;;25.10;99.90;;;;;;5052162;28;20234;-63
2022/07/19 06:33:48;;;;;;;6.63;5.57;;;25.10;99.90;;;;;;5052013;28;20228;-63
2022/07/19 06:36:17;;;;;;;6.03;5.43;;;25.40;99.90;;;;;;5052639;28;20251;-63
2022/07/19 06:38:47;;;;;;;9.43;5.77;;;25.60;99.90;;;;;;5052627;28;20580;-63
2022/07/19 06:41:15;;;;;;;5.60;5.00;;;25.90;99.90;;;;;;5052602;28;20229;-64
2022/07/19 06:43:44;;;;;;;6.07;5.13;;;26.10;99.90;;;;;;5047616;28;20664;-62
2022/07/19 06:46:13;;;;;;;7.03;5.37;;;26.50;99.90;;;;;;5055151;28;20223;-64
2022/07/19 06:48:42;;;;;;;5.93;5.27;;;26.50;99.90;;;;;;5051275;28;20258;-64
2022/07/19 06:51:10;;;;;;;5.53;4.83;;;26.80;99.90;;;;;;5052169;28;20611;-64
2022/07/19 06:53:38;;;;;;;7.73;5.50;;;27.00;99.90;;;;;;5052469;28;20329;-64
2022/07/19 06:56:07;;;;;;;7.80;5.20;;;27.10;99.90;;;;;;5052536;28;20238;-65
2022/07/19 06:58:35;;;;;;;5.80;5.27;;;27.50;99.90;;;;;;5052257;28;20306;-65
2022/07/19 07:01:10;;;;;;;6.87;4.97;;;27.70;99.90;;;;;;5052406;28;20572;-65
2022/07/19 07:03:41;;;;;;;8.33;5.27;;;27.90;99.90;;;;;;5044582;28;20234;-64
2022/07/19 07:06:09;;;;;;;6.27;4.97;;;27.90;99.90;;;;;;5051978;28;20385;-65
2022/07/19 07:08:37;;;;;;;6.83;5.03;;;27.90;99.90;;;;;;5044069;28;20306;-65
2022/07/19 07:11:06;;;;;;;5.60;4.97;;;28.10;99.90;;;;;;5052272;28;20238;-66
2022/07/19 07:13:34;;;;;;;5.13;4.63;;;28.60;99.90;;;;;;5051666;28;20226;-65
2022/07/19 07:16:02;;;;;;;7.13;4.73;;;28.90;99.90;;;;;;5051887;28;20238;-66
2022/07/19 07:18:30;;;;;;;5.70;4.57;;;29.10;99.90;;;;;;5054908;28;20239;-66
2022/07/19 07:21:00;;;;;;;6.50;5.13;;;29.00;99.90;;;;;;5051169;28;20254;-66
2022/07/19 07:23:28;;;;;;;8.60;5.00;;;29.10;99.90;;;;;;5055958;28;20792;-66
2022/07/19 07:25:56;;;;;;;5.20;4.70;;;29.20;99.90;;;;;;5052049;28;20774;-67
2022/07/19 07:28:24;;;;;;;8.27;5.30;;;29.40;99.90;;;;;;5063569;28;20318;-67
2022/07/19 07:30:54;;;;;;;8.73;4.60;;;29.60;99.90;;;;;;5055997;28;20306;-67
2022/07/19 07:33:22;;;;;;;5.33;4.83;;;29.90;99.90;;;;;;5055612;28;20306;-67
2022/07/19 07:35:50;;;;;;;6.77;4.97;;;29.90;99.90;;;;;;5056026;28;20768;-68
2022/07/19 07:38:20;;;;;;;5.47;4.90;;;29.90;99.90;;;;;;5056462;28;20306;-67
2022/07/19 07:40:48;;;;;;;6.33;5.33;;;30.00;99.90;;;;;;5042490;28;20310;-67
2022/07/19 07:43:16;;;;;;;7.93;4.60;;;30.20;99.90;;;;;;5055852;28;20234;-68
2022/07/19 07:45:44;;;;;;;9.00;4.70;;;30.60;99.90;;;;;;5055593;28;20228;-67
2022/07/19 07:48:13;;;;;;;10.10;5.03;;;30.60;99.90;;;;;;5056118;28;20216;-68
2022/07/19 07:50:41;;;;;;;10.23;5.50;;;30.70;99.90;;;;;;5055138;28;20263;-67
2022/07/19 07:53:09;;;;;;;6.70;4.90;;;30.90;99.90;;;;;;5055752;28;20227;-68
2022/07/19 07:55:39;;;;;;;5.43;4.50;;;30.80;99.90;;;;;;5056062;28;20228;-68
2022/07/19 07:58:08;;;;;;;5.33;4.77;;;30.80;99.90;;;;;;5063096;28;20223;-68
2022/07/19 08:00:37;;;;;;;5.27;4.60;;;30.90;99.90;;;;;;5055113;28;20318;-68
2022/07/19 08:03:05;;;;;;;4.70;4.20;;;31.30;99.90;;;;;;5056020;28;20684;-68
2022/07/19 08:05:34;;;;;;;6.37;4.80;;;31.50;99.90;;;;;;5055714;28;20236;-69
2022/07/19 08:08:03;;;;;;;8.03;4.63;;;31.20;99.90;;;;;;5055886;28;20218;-69
2022/07/19 08:10:33;;;;;;;5.30;4.50;;;31.10;99.90;;;;;;5055444;28;20299;-68
2022/07/19 08:13:02;;;;;;;4.83;4.43;;;31.10;99.90;;;;;;5051008;28;20223;-68
2022/07/19 08:15:35;;;;;;;9.33;4.90;;;31.40;99.90;;;;;;5055442;28;20237;-68
2022/07/19 08:18:03;;;;;;;7.70;5.00;;;31.60;99.90;;;;;;5055340;28;20242;-69
2022/07/19 08:20:32;;;;;;;5.43;4.27;;;31.90;99.90;;;;;;5054548;28;20697;-67
2022/07/19 08:23:00;;;;;;;6.13;4.60;;;32.00;99.90;;;;;;5055493;28;20262;-68
2022/07/19 08:25:28;;;;;;;8.97;5.17;;;32.10;99.90;;;;;;5055387;28;20323;-68
2022/07/19 08:27:56;;;;;;;5.60;4.80;;;32.30;99.90;;;;;;5055439;28;20716;-69
2022/07/19 08:30:26;;;;;;;7.10;4.57;;;32.70;99.80;;;;;;5045918;28;20259;-67
2022/07/19 08:33:14;;;;;;;6.67;4.90;;;32.90;99.90;;;;;;5035271;28;20236;-69
2022/07/19 08:35:42;;;;;;;5.70;4.27;;;33.10;99.90;;;;;;5035230;28;20301;-68
2022/07/19 08:38:10;;;;;;;6.80;4.73;;;33.30;99.70;;;;;;5035127;28;20323;-68
2022/07/19 08:40:43;;;;;;;5.83;4.50;;;33.30;99.80;;;;;;5034886;28;20287;-69
2022/07/19 08:43:12;;;;;;;6.33;4.67;;;33.30;98.70;;;;;;5051908;28;20224;-69
2022/07/19 08:45:42;;;;;;;5.37;4.63;;;33.60;99.60;;;;;;5050900;28;20271;-69
2022/07/19 08:48:11;;;;;;;4.73;4.00;;;33.40;96.50;;;;;;5054371;28;20698;-69
2022/07/19 08:50:41;;;;;;;6.10;4.30;;;33.50;97.80;;;;;;5056923;28;20647;-69
2022/07/19 08:53:10;;;;;;;4.50;4.03;;;34.10;97.40;;;;;;5054853;28;20270;-69
2022/07/19 08:55:38;;;;;;;5.33;4.20;;;33.80;94.60;;;;;;5054597;28;20220;-69
2022/07/19 08:58:06;;;;;;;5.17;4.10;;;33.70;94.80;;;;;;5054531;28;20259;-69
2022/07/19 09:00:35;;;;;;;5.03;4.13;;;33.80;94.40;;;;;;5053979;28;20810;-69
2022/07/19 09:03:07;;;;;;;5.43;4.03;;;34.40;95.80;;;;;;5054957;28;20232;-68
2022/07/19 09:05:36;;;;;;;4.50;4.10;;;34.70;94.70;;;;;;5054885;28;20236;-69
2022/07/19 09:08:10;;;;;;;4.30;3.90;;;34.60;94.20;;;;;;5046874;28;20669;-69
2022/07/19 09:10:40;;;;;;;5.27;4.23;;;34.90;95.40;;;;;;5034444;28;20217;-69
2022/07/19 09:13:10;;;;;;;5.13;3.93;;;34.40;92.80;;;;;;5051225;28;20227;-69
2022/07/19 09:15:50;;;;;;;5.33;4.20;;;34.20;93.10;;;;;;5034936;28;20611;-68
2022/07/19 09:18:22;;;;;;;6.37;3.90;;;34.60;92.90;;;;;;5034547;28;20240;-69
2022/07/19 09:20:53;;;;;;;4.73;3.63;;;34.90;92.40;;;;;;5034406;28;20221;-69
2022/07/19 09:23:22;;;;;;;4.90;3.80;;;34.90;91.20;;;;;;5052611;28;20680;-68
2022/07/19 09:25:52;;;;;;;4.13;3.73;;;34.90;90.70;;;;;;5053340;28;20695;-68
2022/07/19 09:28:21;;;;;;;4.73;3.80;;;34.90;90.90;;;;;;5054311;28;20730;-68
2022/07/19 09:30:51;;;;;;;5.03;3.40;;;35.00;89.50;;;;;;5053466;28;20266;-68
2022/07/19 09:33:23;;;;;;;4.07;3.67;;;35.10;89.50;;;;;;5054396;28;20278;-68
2022/07/19 09:35:53;;;;;;;4.00;3.60;;;35.10;87.70;;;;;;5054452;28;20278;-68
2022/07/19 09:38:25;;;;;;;4.53;3.50;;;35.00;88.10;;;;;;5053979;28;20281;-68
2022/07/19 09:40:56;;;;;;;4.60;3.57;;;35.00;90.10;;;;;;5053867;28;20258;-68
2022/07/19 09:43:25;;;;;;;4.37;3.67;;;35.80;88.20;;;;;;5053940;28;20298;-68
2022/07/19 09:46:29;;;;;;;4.50;3.43;;;35.50;86.60;;;;;;5054218;28;20303;-70
2022/07/19 09:49:05;;;;;;;3.80;3.50;;;36.30;82.40;;;;;;5054031;28;20223;-68
2022/07/19 09:51:35;;;;;;;3.57;3.17;;;36.40;84.10;;;;;;5053506;28;20271;-68
2022/07/19 09:54:04;;;;;;;4.67;2.90;;;36.00;83.30;;;;;;5053992;28;20749;-68
2022/07/19 09:56:33;;;;;;;3.57;3.27;;;36.30;82.30;;;;;;5055304;28;20224;-68
2022/07/19 09:59:02;;;;;;;4.07;3.00;;;36.50;83.70;;;;;;5052356;28;20232;-68
2022/07/19 10:01:31;;;;;;;3.07;2.77;;;36.70;81.20;;;;;;5051857;28;20707;-65
2022/07/19 10:04:07;;;;;;;2.90;2.60;;;36.80;79.50;;;;;;5048856;28;20220;-67
2022/07/19 10:06:35;;;;;;;3.80;2.83;;;37.00;79.10;;;;;;5053544;28;20235;-68
2022/07/19 10:09:06;;;;;;;4.10;2.90;;;37.10;76.40;;;;;;5053494;28;20247;-67
2022/07/19 10:11:34;;;;;;;3.30;2.77;;;37.40;77.50;;;;;;5053309;28;20318;-67
2022/07/19 10:14:03;;;;;;;4.67;2.87;;;37.10;77.30;;;;;;5053218;28;20265;-68
2022/07/19 10:16:43;;;;;;;4.67;3.10;;;37.20;77.00;;;;;;5052958;28;20214;-68
2022/07/19 10:19:18;;;;;;;3.33;3.03;;;37.40;76.10;;;;;;5053440;28;20594;-68
2022/07/19 10:21:47;;;;;;;2.90;2.37;;;37.90;77.80;;;;;;5052878;28;20257;-68
2022/07/19 10:24:15;;;;;;;5.17;2.60;;;38.20;76.80;;;;;;5052465;28;20681;-67
2022/07/19 10:26:44;;;;;;;3.00;2.50;;;38.30;76.10;;;;;;5056458;28;20727;-67
2022/07/19 10:29:15;;;;;;;4.17;2.80;;;38.20;72.80;;;;;;5056500;28;20253;-65
2022/07/19 10:32:03;;;;;;;3.53;2.60;;;38.60;73.90;;;;;;5067974;28;20241;-65
2022/07/19 10:34:32;;;;;;;3.30;2.60;;;38.70;74.10;;;;;;5053147;28;20685;-66
2022/07/19 10:37:01;;;;;;;4.87;2.67;;;38.70;72.40;;;;;;5053219;28;20224;-65
2022/07/19 10:39:33;;;;;;;3.90;2.80;;;38.80;71.50;;;;;;5052944;28;20272;-65
2022/07/19 10:42:14;;;;;;;3.73;2.90;;;38.80;71.80;;;;;;5053192;28;20277;-65
2022/07/19 10:45:16;;;;;;;4.37;2.70;;;38.80;71.80;;;;;;5049248;28;20701;-65
2022/07/19 10:48:05;;;;;;;3.10;2.70;;;39.30;72.00;;;;;;5045863;28;20235;-65
2022/07/19 10:50:58;;;;;;;5.80;2.77;;;39.30;70.10;;;;;;5051589;28;20757;-65
2022/07/19 10:53:59;;;;;;;2.60;2.40;;;38.70;68.60;;;;;;5052551;28;20219;-65
2022/07/19 10:56:50;;;;;;;4.67;2.80;;;38.70;68.70;;;;;;5052543;28;20235;-65
2022/07/19 10:59:38;;;;;;;4.60;2.63;;;38.90;69.10;;;;;;5052651;28;20242;-65
2022/07/19 11:02:07;;;;;;;2.47;2.20;;;39.30;66.60;;;;;;5052213;28;20232;-67
2022/07/19 11:04:56;;;;;;;3.73;2.43;;;39.90;67.30;;;;;;5053465;28;20223;-65
2022/07/19 11:07:26;;;;;;;2.90;2.60;;;39.90;66.60;;;;;;5053497;28;20278;-64
2022/07/19 11:09:58;;;;;;;2.73;2.53;;;40.20;68.50;;;;;;5052804;28;20223;-65
2022/07/19 11:12:30;;;;;;;4.43;2.50;;;40.10;67.90;;;;;;5052522;28;20277;-64
2022/07/19 11:14:59;;;;;;;3.97;2.90;;;39.60;66.30;;;;;;5052380;28;20270;-65
2022/07/19 11:17:52;;;;;;;3.27;2.80;;;39.10;63.30;;;;;;5052171;28;20242;-64
2022/07/19 11:20:24;;;;;;;3.17;2.60;;;39.50;67.20;;;;;;5053272;28;20254;-67
2022/07/19 11:22:56;;;;;;;3.37;3.00;;;40.00;67.60;;;;;;5053231;28;20298;-64
2022/07/19 11:25:26;;;;;;;2.70;2.50;;;40.40;68.00;;;;;;5053332;28;20322;-65
2022/07/19 11:27:54;;;;;;;2.70;2.50;;;41.00;66.30;;;;;;5060070;28;20751;-65
2022/07/19 11:30:24;;;;;;;2.97;2.63;;;40.60;65.60;;;;;;5052377;28;20223;-65
2022/07/19 11:32:53;;;;;;;4.73;2.90;;;40.10;62.30;;;;;;5034371;28;20282;-64
2022/07/19 11:35:21;;;;;;;3.23;2.63;;;40.10;63.00;;;;;;5033532;28;20232;-64
2022/07/19 11:37:52;;;;;;;3.33;2.70;;;39.90;63.70;;;;;;5045259;28;20299;-64
2022/07/19 11:40:23;;;;;;;3.80;2.87;;;40.30;64.60;;;;;;5052624;28;20227;-64
2022/07/19 11:42:52;;;;;;;4.00;2.83;;;40.30;63.80;;;;;;5052540;28;20228;-65
2022/07/19 11:45:46;;;;;;;3.87;2.70;;;40.20;63.70;;;;;;5052746;28;20224;-65
2022/07/19 11:48:25;;;;;;;2.90;2.60;;;40.10;64.20;;;;;;5052649;28;20743;-64
2022/07/19 11:51:04;;;;;;;2.63;2.33;;;39.90;63.60;;;;;;5052068;28;20231;-65
2022/07/19 11:53:34;;;;;;;3.03;2.70;;;39.90;64.20;;;;;;5052053;28;20630;-64
2022/07/19 11:56:05;;;;;;;3.70;2.60;;;40.10;61.10;;;;;;5051959;28;20584;-64
2022/07/19 11:58:34;;;;;;;3.63;2.50;;;40.30;61.50;;;;;;5051815;28;20216;-64
2022/07/19 12:01:05;;;;;;;3.23;2.77;;;40.10;61.60;;;;;;5051694;28;20322;-64
2022/07/19 12:03:33;;;;;;;3.07;2.77;;;39.90;63.00;;;;;;5052640;28;20319;-64
2022/07/19 12:06:03;;;;;;;4.50;2.83;;;39.90;61.90;;;;;;5056043;28;20227;-64
2022/07/19 12:08:42;;;;;;;4.93;2.53;;;39.80;62.80;;;;;;5058987;28;20772;-64
2022/07/19 12:11:21;;;;;;;2.80;2.60;;;39.30;64.10;;;;;;5054491;28;20228;-64
2022/07/19 12:13:50;;;;;;;5.13;3.00;;;39.00;63.00;;;;;;5053162;28;20285;-64
2022/07/19 12:16:19;;;;;;;6.23;2.50;;;38.50;62.50;;;;;;5055417;28;20702;-64
2022/07/19 12:18:50;;;;;;;3.53;2.77;;;37.90;65.00;;;;;;5055229;28;20242;-64
2022/07/19 12:21:23;;;;;;;4.83;2.60;;;37.70;64.10;;;;;;5055273;28;20683;-64
2022/07/19 12:24:18;;;;;;;3.27;2.43;;;38.00;63.90;;;;;;5054832;28;20278;-63
2022/07/19 12:26:57;;;;;;;4.70;2.77;;;38.10;61.30;;;;;;5053660;28;20741;-64
2022/07/19 12:29:28;;;;;;;3.20;2.60;;;37.80;61.50;;;;;;5054765;28;20828;-64
2022/07/19 12:31:58;;;;;;;4.13;2.70;;;37.50;65.60;;;;;;5055032;28;20702;-64
2022/07/19 12:34:27;;;;;;;3.80;2.30;;;37.30;63.80;;;;;;5055297;28;20596;-64
2022/07/19 12:36:57;;;;;;;3.77;2.33;;;37.50;65.40;;;;;;5055103;28;20239;-64
2022/07/19 12:39:28;;;;;;;2.87;2.60;;;37.40;67.00;;;;;;5055000;28;20265;-64
2022/07/19 12:42:04;;;;;;;2.60;2.40;;;37.00;62.10;;;;;;5055314;28;20690;-64
2022/07/19 12:44:33;;;;;;;4.30;2.50;;;37.10;67.50;;;;;;5055080;28;20634;-64
2022/07/19 12:47:02;;;;;;;3.53;2.60;;;37.40;67.20;;;;;;5054987;28;20592;-64
2022/07/19 12:49:50;;;;;;;3.40;2.50;;;37.20;63.70;;;;;;5035012;28;20227;-64
2022/07/19 12:52:29;;;;;;;3.60;2.30;;;37.20;67.80;;;;;;5034805;28;20607;-64
2022/07/19 12:54:57;;;;;;;3.90;2.67;;;37.10;67.80;;;;;;5035193;28;20252;-64
2022/07/19 12:57:28;;;;;;;2.87;2.63;;;36.80;64.20;;;;;;5050758;28;20273;-63
2022/07/19 12:59:56;;;;;;;3.97;2.60;;;36.70;65.40;;;;;;5054580;28;20647;-64
2022/07/19 13:02:25;;;;;;;5.67;3.00;;;36.60;68.70;;;;;;5053840;28;20252;-62